Time;durP1;ratioP1;P1;durP2;ratioP2;P2;SDS_P1;SDS_P2;PMS_P1;PMS_P2;Temp;Humidity;BMP_temperature;BMP_pressure;BME280_temperature;BME280_humidity;BME280_pressure;Samples;Min_cycle;Max_cycle;Signal;HPM_P1;HPM_P2
2023/09/18 00:01:39;;;;;;;8.43;7.18;;;;;;;19.81;74.37;100590.06;5076600;28;20055;-81
2023/09/18 00:04:06;;;;;;;10.18;7.50;;;;;;;19.77;74.92;100586.88;5074457;28;20113;-83
2023/09/18 00:06:37;;;;;;;8.05;6.47;;;;;;;19.75;74.80;100588.00;5046290;28;20067;-84
2023/09/18 00:09:13;;;;;;;7.53;6.82;;;;;;;19.72;75.30;100587.31;5078177;28;20040;-84
2023/09/18 00:11:43;;;;;;;8.30;7.37;;;;;;;19.70;75.28;100581.28;5076652;28;20062;-84
2023/09/18 00:14:14;;;;;;;7.97;7.18;;;;;;;19.68;75.76;100582.44;5087724;28;20555;-81
2023/09/18 00:16:45;;;;;;;7.47;6.72;;;;;;;19.65;75.72;100582.72;5067273;28;20048;-78
2023/09/18 00:19:32;;;;;;;7.50;6.80;;;;;;;19.64;76.09;100584.56;5065805;28;20083;-76
2023/09/18 00:22:04;;;;;;;8.18;7.38;;;;;;;19.62;76.81;100575.00;5068768;28;20089;-77
2023/09/18 00:24:33;;;;;;;8.93;7.10;;;;;;;19.58;76.78;100576.25;5032948;28;20555;-78
2023/09/18 00:27:03;;;;;;;8.43;6.72;;;;;;;19.56;76.99;100570.25;5067285;28;20131;-76
2023/09/18 00:29:32;;;;;;;8.25;7.10;;;;;;;19.54;77.13;100569.53;5049581;28;20067;-77
2023/09/18 00:32:00;;;;;;;7.10;6.40;;;;;;;19.52;77.14;100571.53;5085556;28;20450;-76
2023/09/18 00:34:29;;;;;;;8.07;7.22;;;;;;;19.48;77.28;100565.63;5067210;28;20132;-73
2023/09/18 00:36:57;;;;;;;10.35;7.80;;;;;;;19.45;77.72;100569.47;5086465;28;20099;-77
2023/09/18 00:39:26;;;;;;;10.80;7.65;;;;;;;19.44;77.34;100566.94;5066741;28;20062;-75
2023/09/18 00:41:55;;;;;;;8.70;6.97;;;;;;;19.41;77.80;100568.09;5089371;28;20047;-74
2023/09/18 00:44:23;;;;;;;9.45;6.90;;;;;;;19.40;77.60;100562.88;5086201;28;20595;-76
2023/09/18 00:46:51;;;;;;;8.48;7.55;;;;;;;19.40;77.84;100552.19;5068782;28;20237;-75
2023/09/18 00:49:20;;;;;;;8.60;6.75;;;;;;;19.38;77.73;100548.84;5059275;28;20040;-77
2023/09/18 00:51:49;;;;;;;8.65;6.30;;;;;;;19.36;78.22;100545.47;5051724;28;20055;-78
2023/09/18 00:54:18;;;;;;;7.78;6.97;;;;;;;19.33;77.98;100551.13;5052398;28;20048;-77
2023/09/18 00:56:48;;;;;;;8.60;6.32;;;;;;;19.29;78.68;100549.75;5053980;28;20079;-78
2023/09/18 00:59:18;;;;;;;12.20;7.38;;;;;;;19.26;79.04;100545.53;5056169;28;20044;-76
2023/09/18 01:01:49;;;;;;;8.00;7.10;;;;;;;19.22;79.19;100544.97;5069159;28;20070;-76
2023/09/18 01:04:19;;;;;;;8.88;7.63;;;;;;;19.18;79.22;100546.28;5070886;28;20054;-80
2023/09/18 01:06:49;;;;;;;8.05;7.28;;;;;;;19.16;79.13;100550.06;5088363;28;20075;-81
2023/09/18 01:09:17;;;;;;;8.65;6.85;;;;;;;19.11;79.55;100545.19;5084975;28;20096;-80
2023/09/18 01:12:27;;;;;;;8.43;7.40;;;;;;;19.09;80.07;100540.97;5053686;28;20052;-75
2023/09/18 01:15:13;;;;;;;7.60;6.80;;;;;;;19.05;80.28;100531.56;5018142;28;20080;-75
2023/09/18 01:17:40;;;;;;;7.70;6.93;;;;;;;19.02;80.19;100534.56;5086168;28;20102;-75
2023/09/18 01:20:12;;;;;;;8.00;6.93;;;;;;;19.00;80.68;100537.34;5062081;28;20161;-78
2023/09/18 01:22:40;;;;;;;8.30;6.97;;;;;;;18.97;80.42;100527.84;5070493;28;20076;-79
2023/09/18 01:25:07;;;;;;;8.95;7.35;;;;;;;18.96;81.04;100528.00;5064246;28;20519;-77
2023/09/18 01:27:35;;;;;;;8.95;7.20;;;;;;;18.94;80.89;100525.44;5067498;28;20058;-78
2023/09/18 01:30:03;;;;;;;8.13;7.30;;;;;;;18.91;80.54;100535.56;5070690;28;20099;-80
2023/09/18 01:32:35;;;;;;;9.98;7.22;;;;;;;18.88;81.25;100527.88;5068029;28;20052;-79
2023/09/18 01:38:23;;;;;;;7.90;7.10;;;;;;;18.78;81.66;100532.38;5065238;28;20051;-76
2023/09/18 01:40:53;;;;;;;7.80;6.70;;;;;;;18.78;82.60;100525.25;5062920;28;20086;-78
2023/09/18 01:46:43;;;;;;;8.90;7.55;;;;;;;18.77;82.45;100517.38;5067086;28;20051;-79
2023/09/18 01:49:11;;;;;;;6.97;6.27;;;;;;;18.74;82.46;100512.34;5082556;28;20106;-78
2023/09/18 01:51:39;;;;;;;8.98;6.43;;;;;;;18.71;82.46;100516.97;5062459;28;20530;-77
2023/09/18 01:54:06;;;;;;;12.90;7.28;;;;;;;18.70;82.64;100514.47;5077015;28;20076;-78
2023/09/18 01:56:35;;;;;;;7.78;6.97;;;;;;;18.66;82.71;100516.53;5063471;28;20514;-76
2023/09/18 01:59:07;;;;;;;9.20;7.50;;;;;;;18.62;82.91;100517.81;5089605;28;20048;-77
2023/09/18 02:01:44;;;;;;;7.70;6.90;;;;;;;18.59;83.82;100514.59;5085939;28;20347;-77
2023/09/18 02:04:15;;;;;;;7.70;6.78;;;;;;;18.59;83.70;100501.25;5086169;28;20075;-74
2023/09/18 02:07:06;;;;;;;8.60;7.70;;;;;;;18.58;84.44;100497.75;5055069;28;20441;-77
2023/09/18 02:09:34;;;;;;;7.72;6.95;;;;;;;18.57;83.97;100493.41;5067833;28;20056;-76
2023/09/18 02:12:02;;;;;;;7.85;7.13;;;;;;;18.55;84.11;100479.41;5069664;28;20074;-75
2023/09/18 02:14:31;;;;;;;9.48;7.30;;;;;;;18.54;84.31;100474.19;5071500;28;20097;-76
2023/09/18 02:16:58;;;;;;;7.82;7.13;;;;;;;18.53;84.22;100476.03;5089138;28;20082;-76
2023/09/18 02:19:26;;;;;;;7.50;6.90;;;;;;;18.51;84.12;100463.81;5089601;28;20131;-77
2023/09/18 02:21:57;;;;;;;9.23;6.78;;;;;;;18.49;83.99;100463.97;5071815;28;20043;-78
2023/09/18 02:24:26;;;;;;;11.40;6.75;;;;;;;18.44;83.94;100464.41;5072371;28;20048;-78
2023/09/18 02:26:53;;;;;;;7.60;6.88;;;;;;;18.42;84.79;100454.91;5086039;28;20095;-76
2023/09/18 02:29:20;;;;;;;7.50;6.63;;;;;;;18.40;84.37;100451.50;5065100;28;20067;-75
2023/09/18 02:31:50;;;;;;;7.18;6.43;;;;;;;18.40;84.22;100446.19;5088716;28;20044;-78
2023/09/18 02:34:19;;;;;;;7.25;6.53;;;;;;;18.38;84.57;100443.69;5065159;28;20044;-76
2023/09/18 02:36:49;;;;;;;7.00;6.40;;;;;;;18.34;85.46;100450.28;5075691;28;20055;-74
2023/09/18 02:39:17;;;;;;;7.35;6.50;;;;;;;18.32;85.51;100448.72;5078204;28;20056;-75
2023/09/18 02:41:44;;;;;;;10.23;6.75;;;;;;;18.32;86.12;100451.41;5080111;28;20380;-74
2023/09/18 02:44:11;;;;;;;8.13;7.28;;;;;;;18.32;86.40;100446.06;5052478;28;20052;-75
2023/09/18 02:46:42;;;;;;;7.50;6.78;;;;;;;18.30;85.92;100440.06;5049594;28;20080;-76
2023/09/18 02:49:11;;;;;;;8.40;7.50;;;;;;;18.28;86.76;100434.88;5059744;28;20060;-76
2023/09/18 02:51:39;;;;;;;9.30;6.63;;;;;;;18.28;86.43;100434.00;5066523;28;20033;-74
2023/09/18 02:54:10;;;;;;;7.50;6.78;;;;;;;18.25;86.45;100429.84;5086651;28;20047;-78
2023/09/18 02:56:38;;;;;;;9.68;7.00;;;;;;;18.24;86.73;100420.16;5048725;28;20048;-77
2023/09/18 02:59:08;;;;;;;7.40;6.28;;;;;;;18.22;86.18;100425.63;5069720;28;20109;-78
2023/09/18 03:01:38;;;;;;;7.70;6.97;;;;;;;18.20;86.29;100422.28;5086515;28;20109;-76
2023/09/18 03:04:05;;;;;;;9.38;7.13;;;;;;;18.17;86.66;100422.56;5083921;28;20062;-74
2023/09/18 03:06:34;;;;;;;7.40;6.70;;;;;;;18.15;86.70;100415.69;5066352;28;20150;-74
2023/09/18 03:09:03;;;;;;;9.15;6.93;;;;;;;18.13;86.96;100417.66;5087736;28;20048;-76
2023/09/18 03:11:30;;;;;;;7.70;6.85;;;;;;;18.10;86.88;100408.13;5068292;28;20461;-75
2023/09/18 03:13:58;;;;;;;7.70;6.90;;;;;;;18.08;87.84;100398.59;5083827;28;20052;-75
2023/09/18 03:16:26;;;;;;;9.55;6.75;;;;;;;18.05;87.72;100398.88;5086465;28;20106;-76
2023/09/18 03:18:55;;;;;;;6.72;6.03;;;;;;;18.05;87.89;100399.72;5041597;28;20196;-76
2023/09/18 03:21:22;;;;;;;8.52;7.18;;;;;;;18.05;88.21;100399.72;5087547;28;20056;-75
2023/09/18 03:23:50;;;;;;;7.60;6.80;;;;;;;18.03;88.03;100401.69;5090301;28;20465;-80
2023/09/18 03:26:19;;;;;;;7.53;6.30;;;;;;;18.01;88.27;100398.31;5058994;28;20048;-75
2023/09/18 03:28:48;;;;;;;8.43;6.95;;;;;;;18.03;87.81;100401.69;5091143;28;20148;-80
2023/09/18 03:31:17;;;;;;;7.63;6.63;;;;;;;17.99;88.33;100386.97;5072193;28;20040;-81
2023/09/18 03:33:44;;;;;;;7.30;6.60;;;;;;;17.95;88.84;100398.91;5071987;28;20095;-78
2023/09/18 03:36:14;;;;;;;9.07;7.72;;;;;;;17.92;89.21;100391.19;5067118;28;20123;-77
2023/09/18 03:38:43;;;;;;;7.45;6.75;;;;;;;17.91;89.14;100398.34;5052412;28;20406;-76
2023/09/18 03:41:12;;;;;;;7.03;6.43;;;;;;;17.91;89.39;100397.50;5085076;28;20059;-76
2023/09/18 03:43:41;;;;;;;7.32;6.53;;;;;;;17.89;89.52;100387.00;5054048;28;20105;-76
2023/09/18 03:46:09;;;;;;;9.38;7.60;;;;;;;17.88;89.67;100384.50;5069801;28;20064;-76
2023/09/18 03:48:40;;;;;;;7.47;6.68;;;;;;;17.88;89.67;100393.31;5088200;28;20036;-76
2023/09/18 03:51:08;;;;;;;8.52;7.40;;;;;;;17.87;90.67;100390.78;5069064;28;20517;-76
2023/09/18 03:53:36;;;;;;;8.52;6.38;;;;;;;17.81;90.05;100381.56;5087480;28;20075;-75
2023/09/18 03:56:05;;;;;;;8.30;6.82;;;;;;;17.81;90.19;100380.72;5048960;28;20051;-74
2023/09/18 03:58:32;;;;;;;9.18;7.60;;;;;;;17.80;90.37;100379.03;5085553;28;20089;-76
2023/09/18 04:01:04;;;;;;;8.73;7.25;;;;;;;17.77;90.38;100382.81;5051720;28;20113;-73
2023/09/18 04:03:31;;;;;;;8.18;6.68;;;;;;;17.76;90.66;100383.81;5072232;28;20071;-77
2023/09/18 04:06:00;;;;;;;9.00;7.63;;;;;;;17.75;90.66;100381.31;5030666;28;20049;-77
2023/09/18 04:08:33;;;;;;;8.98;7.05;;;;;;;17.76;90.81;100372.31;5050597;28;20052;-76
2023/09/18 04:11:04;;;;;;;9.73;6.82;;;;;;;17.75;90.55;100368.81;5067581;28;20471;-78
2023/09/18 04:13:33;;;;;;;10.70;7.30;;;;;;;17.75;91.63;100368.81;5044057;28;20085;-76
2023/09/18 04:16:03;;;;;;;8.20;7.40;;;;;;;17.75;91.29;100371.50;5048574;28;20172;-77
2023/09/18 04:18:32;;;;;;;10.30;7.20;;;;;;;17.74;91.05;100361.78;5063509;28;21027;-77
2023/09/18 04:21:00;;;;;;;8.32;6.95;;;;;;;17.72;91.37;100361.91;5044891;28;20590;-77
2023/09/18 04:23:29;;;;;;;8.85;6.88;;;;;;;17.71;91.47;100354.91;5080904;28;20057;-77
2023/09/18 04:25:58;;;;;;;8.30;7.47;;;;;;;17.72;91.55;100356.59;5044832;28;20445;-75
2023/09/18 04:28:28;;;;;;;8.63;6.68;;;;;;;17.72;91.49;100348.59;5059495;28;20594;-77
2023/09/18 04:30:56;;;;;;;8.15;7.05;;;;;;;17.72;91.27;100353.09;5059031;28;20055;-76
2023/09/18 04:33:28;;;;;;;8.57;7.05;;;;;;;17.71;91.61;100349.59;5065004;28;20032;-77
2023/09/18 04:35:56;;;;;;;11.25;7.47;;;;;;;17.74;92.29;100347.66;5046434;28;20040;-76
2023/09/18 04:38:24;;;;;;;7.40;6.30;;;;;;;17.75;91.69;100347.53;5063532;28;20454;-77
2023/09/18 04:40:58;;;;;;;9.88;7.00;;;;;;;17.75;91.57;100341.38;5060950;28;20063;-78
2023/09/18 04:43:26;;;;;;;7.82;6.70;;;;;;;17.76;91.97;100351.03;5079462;28;20047;-78
2023/09/18 04:45:55;;;;;;;9.30;7.32;;;;;;;17.77;91.79;100344.72;5065490;28;20052;-78
2023/09/18 04:48:24;;;;;;;8.32;6.78;;;;;;;17.79;91.50;100348.09;5065974;28;20051;-77
2023/09/18 04:50:52;;;;;;;7.75;6.57;;;;;;;17.78;91.34;100341.88;5049550;28;20032;-79
2023/09/18 04:53:20;;;;;;;7.35;6.65;;;;;;;17.80;91.48;100339.94;5042035;28;20059;-76
2023/09/18 04:55:51;;;;;;;8.45;7.22;;;;;;;17.82;91.17;100334.47;5062811;28;20543;-78
2023/09/18 04:58:18;;;;;;;9.90;7.20;;;;;;;17.88;90.91;100344.56;5051607;28;20075;-77
2023/09/18 05:00:58;;;;;;;7.10;6.40;;;;;;;17.91;91.18;100345.09;5037374;28;20191;-77
2023/09/18 05:03:30;;;;;;;9.35;7.03;;;;;;;17.91;90.92;100338.91;5053688;28;20052;-78
2023/09/18 05:06:00;;;;;;;7.30;6.05;;;;;;;17.94;90.63;100339.47;5067152;28;20066;-77
2023/09/18 05:08:27;;;;;;;9.98;7.10;;;;;;;17.98;90.49;100342.69;5043171;28;20064;-75
2023/09/18 05:10:55;;;;;;;7.95;6.40;;;;;;;18.03;90.22;100340.44;5045370;28;20044;-75
2023/09/18 05:13:23;;;;;;;9.60;7.60;;;;;;;18.05;90.58;100334.94;5040697;28;20114;-77
2023/09/18 05:15:51;;;;;;;10.65;7.25;;;;;;;18.11;90.02;100337.06;5045292;28;20157;-76
2023/09/18 05:18:18;;;;;;;9.70;7.70;;;;;;;18.14;89.91;100334.91;5032749;28;20044;-75
2023/09/18 05:20:45;;;;;;;7.88;7.05;;;;;;;18.18;90.03;100328.31;5029441;28;20059;-76
2023/09/18 05:23:13;;;;;;;7.97;7.03;;;;;;;18.21;89.76;100330.69;5062727;28;20087;-75
2023/09/18 05:25:44;;;;;;;10.63;7.55;;;;;;;18.28;89.61;100322.97;5059717;28;20147;-77
2023/09/18 05:28:11;;;;;;;13.18;7.57;;;;;;;18.33;89.23;100326.03;5056129;28;20047;-75
2023/09/18 05:30:38;;;;;;;9.63;7.30;;;;;;;18.40;89.27;100326.25;5069684;28;20510;-76
2023/09/18 05:33:08;;;;;;;9.77;7.13;;;;;;;18.49;88.62;100317.38;5036661;28;20052;-75
2023/09/18 05:35:39;;;;;;;11.68;7.38;;;;;;;18.57;88.00;100325.47;5067937;28;20545;-77
2023/09/18 05:38:07;;;;;;;12.10;7.50;;;;;;;18.62;87.64;100323.19;5049378;28;20063;-77
2023/09/18 05:40:34;;;;;;;7.88;7.05;;;;;;;18.72;87.20;100321.31;5072205;28;20083;-77
2023/09/18 05:43:04;;;;;;;7.28;6.18;;;;;;;18.79;86.70;100318.91;5034966;28;20136;-76
2023/09/18 05:45:32;;;;;;;13.93;6.75;;;;;;;18.83;86.51;100311.44;5069472;28;20536;-77
2023/09/18 05:48:05;;;;;;;8.70;6.35;;;;;;;18.88;86.03;100307.31;5054457;28;20450;-77
2023/09/18 05:50:37;;;;;;;10.35;6.97;;;;;;;18.95;85.95;100303.03;5039369;28;20186;-76
2023/09/18 05:53:05;;;;;;;9.65;7.20;;;;;;;19.03;85.71;100296.97;5088771;28;20052;-77
2023/09/18 05:55:33;;;;;;;7.05;6.35;;;;;;;19.15;84.99;100295.75;5054445;28;20060;-77
2023/09/18 05:58:03;;;;;;;10.20;8.13;;;;;;;19.21;84.59;100292.44;5065523;28;20072;-78
2023/09/18 06:00:31;;;;;;;7.60;6.78;;;;;;;19.30;83.79;100289.84;5090133;28;20040;-78
2023/09/18 06:02:58;;;;;;;11.30;7.05;;;;;;;19.38;83.41;100287.25;5067828;28;20077;-76
2023/09/18 06:05:26;;;;;;;13.18;7.10;;;;;;;19.42;83.07;100283.28;5087764;28;20076;-76
2023/09/18 06:07:54;;;;;;;8.43;6.47;;;;;;;19.45;82.93;100278.47;5087566;28;20059;-76
2023/09/18 06:10:21;;;;;;;8.93;6.60;;;;;;;19.49;82.85;100278.97;5069330;28;20504;-76
2023/09/18 06:12:48;;;;;;;12.30;6.97;;;;;;;19.56;82.21;100268.50;5068363;28;20119;-77
2023/09/18 06:15:16;;;;;;;8.95;6.88;;;;;;;19.60;82.20;100269.88;5053406;28;20129;-75
2023/09/18 06:17:43;;;;;;;8.75;6.50;;;;;;;19.64;81.68;100263.25;5070697;28;20093;-77
2023/09/18 06:20:15;;;;;;;7.95;6.85;;;;;;;19.67;81.78;100263.75;5057023;28;20495;-77
2023/09/18 06:22:43;;;;;;;9.98;6.55;;;;;;;19.60;81.64;100254.72;5057313;28;20104;-77
2023/09/18 06:25:11;;;;;;;14.15;7.03;;;;;;;19.61;81.81;100260.91;5069341;28;20093;-77
2023/09/18 06:27:38;;;;;;;7.65;6.80;;;;;;;19.65;81.87;100263.09;5068789;28;20052;-76
2023/09/18 06:30:06;;;;;;;9.20;6.55;;;;;;;19.65;81.81;100263.09;5068251;28;20086;-79
2023/09/18 06:32:34;;;;;;;7.32;6.55;;;;;;;19.71;81.57;100259.78;5069775;28;20052;-77
2023/09/18 06:35:01;;;;;;;8.30;6.10;;;;;;;19.77;81.21;100255.66;5042410;28;20076;-76
2023/09/18 06:37:29;;;;;;;7.95;6.05;;;;;;;19.85;80.89;100253.00;5052283;28;20075;-77
2023/09/18 06:39:59;;;;;;;10.50;7.15;;;;;;;19.94;80.46;100254.72;5070645;28;20076;-79
2023/09/18 06:42:26;;;;;;;9.35;7.10;;;;;;;20.09;79.83;100246.13;5049466;28;20080;-77
2023/09/18 06:44:53;;;;;;;9.50;6.70;;;;;;;20.19;79.45;100252.16;5054341;28;20060;-77
2023/09/18 06:47:21;;;;;;;11.88;6.57;;;;;;;20.28;79.07;100245.03;5090662;28;20080;-77
2023/09/18 06:49:48;;;;;;;8.85;6.07;;;;;;;20.41;78.40;100237.38;5037297;28;20082;-77
2023/09/18 06:52:16;;;;;;;15.50;8.07;;;;;;;20.52;78.15;100229.06;5069956;28;20109;-76
2023/09/18 06:54:44;;;;;;;7.25;6.55;;;;;;;20.59;77.60;100224.75;5054935;28;20075;-76
2023/09/18 06:57:11;;;;;;;9.88;6.40;;;;;;;20.67;77.47;100224.75;5066439;28;20463;-78
2023/09/18 06:59:39;;;;;;;9.50;6.95;;;;;;;20.74;76.37;100230.25;5055354;28;20140;-74
2023/09/18 07:02:06;;;;;;;12.48;6.15;;;;;;;20.78;76.27;100228.94;5088910;28;20132;-77
2023/09/18 07:04:34;;;;;;;6.95;6.25;;;;;;;20.86;75.88;100220.91;5057021;28;20087;-76
2023/09/18 07:07:01;;;;;;;8.45;6.50;;;;;;;21.02;74.78;100212.03;5091586;28;20056;-77
2023/09/18 07:09:29;;;;;;;9.35;6.78;;;;;;;21.13;74.41;100211.72;5070946;28;20398;-78
2023/09/18 07:11:56;;;;;;;15.57;7.68;;;;;;;21.23;73.92;100204.31;5045567;28;20044;-77
2023/09/18 07:14:23;;;;;;;11.65;5.72;;;;;;;21.31;73.38;100205.34;5037003;28;20052;-78
2023/09/18 07:16:51;;;;;;;8.55;5.80;;;;;;;21.30;73.05;100196.47;5052747;28;20040;-78
2023/09/18 07:19:18;;;;;;;7.25;5.65;;;;;;;21.48;72.68;100188.25;5034673;28;20123;-76
2023/09/18 07:21:45;;;;;;;7.82;5.85;;;;;;;21.54;72.45;100179.53;5035856;28;20137;-77
2023/09/18 07:24:16;;;;;;;7.22;5.25;;;;;;;21.63;71.99;100180.34;5040297;28;20076;-77
2023/09/18 07:26:46;;;;;;;13.50;6.22;;;;;;;21.73;71.76;100180.97;5052373;28;20044;-78
2023/09/18 07:29:15;;;;;;;6.47;5.03;;;;;;;21.82;71.27;100185.28;5052294;28;20075;-77
2023/09/18 07:31:43;;;;;;;9.20;5.53;;;;;;;21.93;70.37;100184.03;5067417;28;20048;-78
2023/09/18 07:34:11;;;;;;;11.23;6.75;;;;;;;22.15;69.86;100193.19;5052523;28;20060;-76
2023/09/18 07:36:41;;;;;;;6.43;5.72;;;;;;;22.28;69.92;100195.31;5066667;28;20048;-77
2023/09/18 07:39:08;;;;;;;6.50;5.85;;;;;;;22.29;69.16;100183.56;5050615;28;20048;-77
2023/09/18 07:41:36;;;;;;;8.27;5.45;;;;;;;22.35;69.14;100180.19;5063406;28;20055;-77
2023/09/18 07:44:04;;;;;;;6.75;5.70;;;;;;;22.43;68.75;100185.50;5066817;28;20058;-77
2023/09/18 07:46:31;;;;;;;5.10;4.43;;;;;;;22.46;68.50;100179.75;5086047;28;20171;-78
2023/09/18 07:48:58;;;;;;;10.13;5.13;;;;;;;22.64;68.00;100177.59;5083116;28;20144;-77
2023/09/18 07:51:26;;;;;;;6.85;5.00;;;;;;;22.84;67.77;100180.66;5052262;28;20060;-77
2023/09/18 07:53:53;;;;;;;5.55;5.05;;;;;;;22.88;66.46;100184.66;5048082;28;20055;-76
2023/09/18 07:56:21;;;;;;;9.63;5.55;;;;;;;22.94;66.83;100186.63;5058819;28;20048;-76
2023/09/18 07:58:48;;;;;;;6.97;5.63;;;;;;;22.98;66.12;100184.41;5063053;28;20060;-78
2023/09/18 08:01:17;;;;;;;6.85;5.32;;;;;;;23.03;65.91;100184.72;5084637;28;20085;-77
2023/09/18 08:03:44;;;;;;;6.22;4.70;;;;;;;23.20;65.78;100183.53;5068417;28;20071;-77
2023/09/18 08:06:12;;;;;;;7.53;4.88;;;;;;;23.24;65.59;100182.16;5049956;28;20052;-77
2023/09/18 08:08:39;;;;;;;8.48;5.13;;;;;;;23.43;64.77;100182.63;5067090;28;20036;-75
2023/09/18 08:11:08;;;;;;;5.07;4.57;;;;;;;23.47;64.62;100175.88;5035487;28;20071;-77
2023/09/18 08:13:36;;;;;;;6.90;4.45;;;;;;;23.60;64.36;100181.44;5050524;28;20094;-77
2023/09/18 08:16:07;;;;;;;6.78;5.40;;;;;;;23.82;63.56;100171.63;5067283;28;20572;-78
2023/09/18 08:18:35;;;;;;;8.25;5.35;;;;;;;24.01;62.54;100162.13;5066485;28;20101;-77
2023/09/18 08:21:04;;;;;;;7.45;4.45;;;;;;;24.20;61.04;100172.28;5068154;28;20040;-77
2023/09/18 08:23:32;;;;;;;7.63;4.13;;;;;;;24.25;60.91;100166.31;5066790;28;20055;-76
2023/09/18 08:26:01;;;;;;;8.25;4.55;;;;;;;24.43;60.34;100155.16;5062926;28;20142;-77
2023/09/18 08:28:28;;;;;;;8.38;5.15;;;;;;;24.74;59.31;100155.66;5085732;28;20089;-77
2023/09/18 08:30:55;;;;;;;13.18;4.57;;;;;;;24.88;58.59;100151.22;5027367;28;20503;-78
2023/09/18 08:33:23;;;;;;;6.07;4.20;;;;;;;24.99;58.32;100142.63;5055226;28;20056;-78
2023/09/18 08:35:50;;;;;;;7.50;4.78;;;;;;;25.19;57.74;100150.84;5062084;28;20147;-78
2023/09/18 08:38:17;;;;;;;6.55;4.35;;;;;;;25.36;56.93;100150.56;5079138;28;20500;-79
2023/09/18 08:40:45;;;;;;;7.90;4.32;;;;;;;25.40;56.08;100157.22;5067051;28;20494;-78
2023/09/18 08:43:14;;;;;;;6.85;4.65;;;;;;;25.13;57.62;100153.53;5049102;28;20059;-77
2023/09/18 08:45:52;;;;;;;6.90;4.47;;;;;;;25.26;56.83;100153.59;5063582;28;20489;-78
2023/09/18 08:48:21;;;;;;;5.55;4.35;;;;;;;25.26;56.26;100156.28;5047126;28;20767;-77
2023/09/18 08:50:49;;;;;;;6.10;4.32;;;;;;;25.43;55.93;100148.72;5050129;28;20068;-79
2023/09/18 08:53:16;;;;;;;6.07;4.40;;;;;;;25.47;55.97;100141.91;5030655;28;20044;-80
2023/09/18 08:55:44;;;;;;;4.90;4.30;;;;;;;25.68;55.06;100135.59;5050216;28;20120;-78
2023/09/18 08:58:12;;;;;;;6.15;4.53;;;;;;;25.91;54.60;100138.81;5036962;28;20151;-77
2023/09/18 09:00:39;;;;;;;4.15;3.67;;;;;;;26.17;54.82;100132.69;5086250;28;20060;-78
2023/09/18 09:03:06;;;;;;;6.60;4.30;;;;;;;26.28;53.74;100133.94;5069147;28;20044;-77
2023/09/18 09:05:34;;;;;;;7.70;4.05;;;;;;;26.44;53.05;100112.00;5075568;28;20525;-78
2023/09/18 09:08:02;;;;;;;7.70;5.22;;;;;;;26.57;52.38;100113.00;5067498;28;20055;-77
2023/09/18 09:10:29;;;;;;;6.47;4.07;;;;;;;26.45;53.01;100113.66;5037761;28;20095;-78
2023/09/18 09:13:00;;;;;;;4.82;3.83;;;;;;;26.64;52.57;100103.88;5071728;28;20075;-77
2023/09/18 09:15:32;;;;;;;5.13;3.75;;;;;;;26.67;52.46;100097.25;5053837;28;20058;-77
2023/09/18 09:18:08;;;;;;;6.07;4.72;;;;;;;27.12;51.89;100098.28;5071110;28;20044;-78
2023/09/18 09:20:36;;;;;;;5.72;3.55;;;;;;;27.36;50.85;100098.63;5053781;28;20047;-77
2023/09/18 09:23:06;;;;;;;6.85;3.90;;;;;;;27.42;49.75;100087.78;5073593;28;20040;-77
2023/09/18 09:25:34;;;;;;;4.40;4.00;;;;;;;27.51;49.87;100085.66;5070316;28;20052;-78
2023/09/18 09:28:04;;;;;;;5.07;3.88;;;;;;;27.54;49.89;100090.66;5056949;28;20052;-77
2023/09/18 09:30:33;;;;;;;5.80;3.72;;;;;;;27.61;48.94;100083.34;5057516;28;20138;-78
2023/09/18 09:33:04;;;;;;;7.03;4.28;;;;;;;27.34;49.77;100084.50;5072113;28;20364;-77
2023/09/18 09:35:36;;;;;;;5.32;4.20;;;;;;;27.46;48.96;100082.78;5052955;28;20049;-78
2023/09/18 09:38:09;;;;;;;3.67;3.38;;;;;;;27.50;48.46;100070.50;5070153;28;20048;-79
2023/09/18 09:40:41;;;;;;;4.63;3.55;;;;;;;27.62;48.42;100059.84;5053025;28;20055;-78
2023/09/18 09:43:10;;;;;;;6.80;4.00;;;;;;;27.68;48.44;100062.50;5056679;28;20089;-77
2023/09/18 09:45:39;;;;;;;6.97;3.60;;;;;;;27.73;47.73;100059.19;5067075;28;20421;-79
2023/09/18 09:48:08;;;;;;;5.78;3.70;;;;;;;27.66;47.84;100066.47;5056017;28;20461;-78
2023/09/18 09:50:48;;;;;;;6.25;3.70;;;;;;;27.54;47.65;100063.59;5068528;28;20459;-77
2023/09/18 09:53:16;;;;;;;4.78;3.78;;;;;;;27.39;48.25;100054.94;5073763;28;20098;-79
2023/09/18 09:55:44;;;;;;;6.93;4.07;;;;;;;27.54;48.41;100063.59;5068444;28;20039;-78
2023/09/18 09:58:13;;;;;;;8.23;4.22;;;;;;;27.42;48.18;100081.53;5069034;28;20048;-78
2023/09/18 10:00:45;;;;;;;6.32;3.90;;;;;;;27.17;49.40;100081.41;5067739;28;20056;-78
2023/09/18 10:03:15;;;;;;;7.43;3.38;;;;;;;27.06;49.43;100066.63;5072551;28;20147;-78
2023/09/18 10:05:45;;;;;;;7.38;3.90;;;;;;;26.89;49.63;100058.19;5053443;28;20051;-78
2023/09/18 10:08:16;;;;;;;5.00;3.35;;;;;;;27.10;49.58;100067.09;5055803;28;20055;-78
2023/09/18 10:10:47;;;;;;;4.63;4.00;;;;;;;26.96;49.48;100060.84;5043774;28;20081;-77
2023/09/18 10:13:21;;;;;;;4.95;3.83;;;;;;;26.89;49.74;100047.38;5057786;28;20149;-78
2023/09/18 10:15:50;;;;;;;7.05;3.95;;;;;;;26.83;50.23;100039.28;5058006;28;20056;-78
2023/09/18 10:18:17;;;;;;;6.78;4.22;;;;;;;26.85;49.81;100042.59;5063883;28;21881;-77
2023/09/18 10:20:51;;;;;;;3.97;3.50;;;;;;;26.63;50.52;100040.13;5062930;28;20044;-76
2023/09/18 10:23:27;;;;;;;4.53;3.80;;;;;;;26.66;50.69;100039.72;5049928;28;20058;-77
2023/09/18 10:25:59;;;;;;;7.00;4.30;;;;;;;26.73;50.40;100045.94;5049330;28;20652;-77
2023/09/18 10:28:30;;;;;;;9.07;3.67;;;;;;;26.76;50.11;100039.28;5051776;28;20403;-77
2023/09/18 10:30:58;;;;;;;6.95;3.92;;;;;;;26.95;49.88;100026.78;5052219;28;20531;-77
2023/09/18 10:33:26;;;;;;;5.25;3.83;;;;;;;26.96;49.87;100041.94;5072053;28;20102;-75
2023/09/18 10:35:56;;;;;;;6.97;3.78;;;;;;;27.02;49.76;100060.84;5046598;28;20055;-76
2023/09/18 10:38:24;;;;;;;5.28;3.88;;;;;;;27.12;49.96;100062.31;5037711;28;20491;-77
2023/09/18 10:40:53;;;;;;;6.13;4.13;;;;;;;27.00;50.02;100060.22;5051473;28;20076;-77
2023/09/18 10:43:20;;;;;;;6.28;3.72;;;;;;;26.96;50.11;100066.25;5055535;28;20056;-77
2023/09/18 10:45:48;;;;;;;6.05;3.90;;;;;;;27.11;49.09;100058.78;5068306;28;20554;-76
2023/09/18 10:48:17;;;;;;;8.23;4.10;;;;;;;26.94;48.64;100071.88;5035862;28;20057;-77
2023/09/18 10:54:20;;;;;;;5.10;3.33;;;;;;;26.87;49.04;100054.00;5086751;28;20048;-77
2023/09/18 10:56:48;;;;;;;6.38;4.32;;;;;;;26.67;48.79;100056.75;5063987;28;20055;-77
2023/09/18 10:59:17;;;;;;;6.03;3.63;;;;;;;26.63;48.79;100048.25;5056845;28;20063;-77
2023/09/18 11:01:48;;;;;;;8.60;3.50;;;;;;;26.72;48.76;100046.97;5050700;28;20090;-76
2023/09/18 11:04:18;;;;;;;7.05;3.90;;;;;;;26.72;48.24;100046.16;5054968;28;20502;-77
2023/09/18 11:06:55;;;;;;;8.20;4.03;;;;;;;26.51;48.85;100036.41;5067519;28;20063;-77
2023/09/18 11:09:27;;;;;;;7.18;4.07;;;;;;;26.25;49.90;100045.28;5088570;28;20083;-77
2023/09/18 11:11:58;;;;;;;4.93;3.63;;;;;;;26.07;50.82;100037.81;5036429;28;20048;-76
2023/09/18 11:14:46;;;;;;;5.63;4.00;;;;;;;26.09;50.96;100051.94;5087166;28;20462;-77
2023/09/18 11:17:33;;;;;;;5.60;3.58;;;;;;;25.97;50.61;100048.16;5063920;28;20526;-76
2023/09/18 11:20:25;;;;;;;6.68;3.63;;;;;;;25.82;51.72;100042.13;5064281;28;20064;-77
2023/09/18 11:22:58;;;;;;;6.78;3.70;;;;;;;25.85;51.69;100058.75;5041789;28;20833;-78
2023/09/18 11:25:41;;;;;;;5.38;3.60;;;;;;;25.98;51.48;100063.31;5050309;28;20055;-77
2023/09/18 11:28:15;;;;;;;8.90;4.13;;;;;;;25.97;51.84;100050.88;5086008;28;20144;-77
2023/09/18 11:30:51;;;;;;;6.85;3.90;;;;;;;25.89;51.69;100054.59;5048359;28;20097;-77
2023/09/18 11:33:41;;;;;;;8.27;4.28;;;;;;;25.89;52.28;100053.75;5079309;28;20075;-77
2023/09/18 11:36:19;;;;;;;9.85;3.92;;;;;;;25.94;52.33;100052.13;5080708;28;20108;-77
2023/09/18 11:38:57;;;;;;;10.90;4.43;;;;;;;25.93;52.32;100053.13;5063260;28;20146;-78
2023/09/18 11:41:28;;;;;;;5.78;3.92;;;;;;;25.85;52.10;100052.50;5046499;28;20133;-76
2023/09/18 11:44:14;;;;;;;6.65;4.00;;;;;;;25.85;52.95;100069.53;5063880;28;20055;-78
2023/09/18 11:46:45;;;;;;;4.72;3.85;;;;;;;25.78;52.86;100054.34;5044531;28;20525;-79